Taycheedah, Wisconsin
Current Conditions -  °F | °C
As of 9:53 AM on Friday 24 Oct 2014 (Local Time) from KFLD Reporting Station
Overcast Overcast  
Wind Chill: 47°   Ceiling: 500
Heat Index: 49°   Visibility: 10mi
Dew Point: 46°   Wind: 6mph
Humidity: 90%   Direction: 220°SW
Pressure: 30.04"   Gusts: NA
Location:  43.7436°N, 88.3886°W
Report Text: KFLD 241453Z AUTO 22005KT 10SM OVC005 09/08 A3004 RMK AO2 SLP175 T00940078 50002
Loading
Personal Weather Stations






























Interactive Weather Map
Tropical Storm Tracking
New forecast layout! Learn more

10-Day Weather Forecast

Advertisements
Track Severe Weather on mobile